createdAt,value
2018-09-09T00:00:14.467Z,15.80
2018-09-09T00:02:42.833Z,15.70
2018-09-09T00:05:11.144Z,15.70
2018-09-09T00:07:39.414Z,15.70
2018-09-09T00:10:07.658Z,15.70
2018-09-09T00:12:35.978Z,15.60
2018-09-09T00:15:04.249Z,15.60
2018-09-09T00:17:32.537Z,15.50
2018-09-09T00:20:00.860Z,15.50
2018-09-09T00:22:29.220Z,15.50
2018-09-09T00:24:57.567Z,15.60
2018-09-09T00:27:26.859Z,15.60
2018-09-09T00:29:55.138Z,15.60
2018-09-09T00:32:23.474Z,15.50
2018-09-09T00:34:51.726Z,15.50
2018-09-09T00:37:20.056Z,15.50
2018-09-09T00:39:48.313Z,15.40
2018-09-09T00:42:16.569Z,15.40
2018-09-09T00:44:44.851Z,15.40
2018-09-09T00:47:13.183Z,15.30
2018-09-09T00:49:46.864Z,15.30
2018-09-09T00:52:20.646Z,15.20
2018-09-09T00:54:48.932Z,15.20
2018-09-09T00:57:17.159Z,15.20
2018-09-09T00:59:45.459Z,15.20
2018-09-09T01:02:13.738Z,15.20
2018-09-09T01:04:42.005Z,15.20
2018-09-09T01:07:10.298Z,15.20
2018-09-09T01:09:38.566Z,15.20
2018-09-09T01:12:06.833Z,15.30
2018-09-09T01:14:35.630Z,15.20
2018-09-09T01:17:04.028Z,15.20
2018-09-09T01:19:32.342Z,15.20
2018-09-09T01:22:00.631Z,15.30
2018-09-09T01:24:28.898Z,15.30
2018-09-09T01:26:57.200Z,15.30
2018-09-09T01:29:25.459Z,15.30
2018-09-09T01:31:53.742Z,15.20
2018-09-09T01:34:22.065Z,15.20
2018-09-09T01:36:50.320Z,15.20
2018-09-09T01:39:18.596Z,15.20
2018-09-09T01:41:46.824Z,15.20
2018-09-09T01:44:15.099Z,15.20
2018-09-09T01:46:43.382Z,15.20
2018-09-09T01:49:11.648Z,15.20
2018-09-09T01:51:40.856Z,15.10
2018-09-09T01:54:09.084Z,15.10
2018-09-09T01:56:37.613Z,15.10
2018-09-09T01:59:05.855Z,15.10
2018-09-09T02:01:34.126Z,15.10
2018-09-09T02:04:02.409Z,15.10
2018-09-09T02:06:30.680Z,15.10
2018-09-09T02:08:58.959Z,15.00
2018-09-09T02:11:27.208Z,15.00
2018-09-09T02:13:55.450Z,15.10
2018-09-09T02:16:23.688Z,15.00
2018-09-09T02:18:51.947Z,15.00
2018-09-09T02:21:20.235Z,15.10
2018-09-09T02:26:23.094Z,15.10
2018-09-09T02:28:51.363Z,15.00
2018-09-09T02:31:19.725Z,15.00
2018-09-09T02:33:48.061Z,15.00
2018-09-09T02:36:16.318Z,15.00
2018-09-09T02:38:44.575Z,15.00
2018-09-09T02:41:12.919Z,15.00
2018-09-09T02:43:41.374Z,15.00
2018-09-09T02:46:09.615Z,15.10
2018-09-09T02:48:37.891Z,15.10
2018-09-09T02:51:06.541Z,15.10
2018-09-09T02:53:34.810Z,15.10
2018-09-09T02:56:07.306Z,15.00
2018-09-09T02:58:42.430Z,15.10
2018-09-09T03:01:10.676Z,15.10
2018-09-09T03:03:38.916Z,15.00
2018-09-09T03:06:07.185Z,15.00
2018-09-09T03:08:35.477Z,15.00
2018-09-09T03:11:09.052Z,15.10
2018-09-09T03:13:37.367Z,15.10
2018-09-09T03:16:05.601Z,15.10
2018-09-09T03:18:33.842Z,15.10
2018-09-09T03:21:02.048Z,15.10
2018-09-09T03:23:30.716Z,15.10
2018-09-09T03:25:59.595Z,15.10
2018-09-09T03:28:27.889Z,15.10
2018-09-09T03:30:56.206Z,15.10
2018-09-09T03:33:24.497Z,15.10
2018-09-09T03:35:52.895Z,15.10
2018-09-09T03:38:21.911Z,15.20
2018-09-09T03:40:50.706Z,15.20
2018-09-09T03:43:18.972Z,15.10
2018-09-09T03:45:48.246Z,15.10
2018-09-09T03:48:16.498Z,15.20
2018-09-09T03:50:51.353Z,15.20
2018-09-09T03:53:19.608Z,15.10
2018-09-09T03:55:47.927Z,15.20
2018-09-09T03:58:16.203Z,15.10
2018-09-09T04:00:44.483Z,15.10
2018-09-09T04:03:12.755Z,15.10
2018-09-09T04:05:41.035Z,15.10
2018-09-09T04:08:09.253Z,15.10
2018-09-09T04:10:37.518Z,15.00
2018-09-09T04:13:05.889Z,15.00
2018-09-09T04:15:34.184Z,15.00
2018-09-09T04:18:02.465Z,15.10
2018-09-09T04:20:30.715Z,15.10
2018-09-09T04:22:58.956Z,15.10
2018-09-09T04:25:27.188Z,15.00
2018-09-09T04:27:55.391Z,15.00
2018-09-09T04:30:23.674Z,15.10
2018-09-09T04:32:51.869Z,15.10
2018-09-09T04:35:20.107Z,15.10
2018-09-09T04:37:48.358Z,15.10
2018-09-09T04:40:16.557Z,15.00
2018-09-09T04:42:44.906Z,15.10
2018-09-09T04:45:13.202Z,15.00
2018-09-09T04:47:41.554Z,15.10
2018-09-09T04:50:09.887Z,15.00
2018-09-09T04:52:38.537Z,15.00
2018-09-09T04:55:06.858Z,15.00
2018-09-09T04:57:35.163Z,14.90
2018-09-09T05:00:03.437Z,14.90
2018-09-09T05:02:31.715Z,14.90
2018-09-09T05:04:59.979Z,15.00
2018-09-09T05:07:28.244Z,14.90
2018-09-09T05:09:56.493Z,15.00
2018-09-09T05:12:24.700Z,15.00
2018-09-09T05:14:52.945Z,15.00
2018-09-09T05:17:21.211Z,15.00
2018-09-09T05:19:49.528Z,15.00
2018-09-09T05:22:17.744Z,15.10
2018-09-09T05:24:46.171Z,15.00
2018-09-09T05:27:14.510Z,15.10
2018-09-09T05:29:42.775Z,15.10
2018-09-09T05:32:17.584Z,15.10
2018-09-09T05:34:46.092Z,15.20
2018-09-09T05:37:14.402Z,15.20
2018-09-09T05:39:42.739Z,15.20
2018-09-09T05:42:11.011Z,15.30
2018-09-09T05:44:39.243Z,15.30
2018-09-09T05:47:07.495Z,15.30
2018-09-09T05:49:35.744Z,15.40
2018-09-09T05:52:04.000Z,15.40
2018-09-09T05:54:32.304Z,15.40
2018-09-09T05:57:00.561Z,15.50
2018-09-09T05:59:28.804Z,15.60
2018-09-09T06:01:57.085Z,15.60
2018-09-09T06:04:25.390Z,15.60
2018-09-09T06:06:53.606Z,15.70
2018-09-09T06:09:21.872Z,15.70
2018-09-09T06:11:50.816Z,15.70
2018-09-09T06:14:19.077Z,15.70
2018-09-09T06:16:47.378Z,15.70
2018-09-09T06:19:15.579Z,15.80
2018-09-09T06:21:43.856Z,15.80
2018-09-09T06:24:12.147Z,15.80
2018-09-09T06:26:40.383Z,15.90
2018-09-09T06:29:08.616Z,15.90
2018-09-09T06:31:36.913Z,16.00
2018-09-09T06:34:05.199Z,16.10
2018-09-09T06:36:33.472Z,16.10
2018-09-09T06:39:01.844Z,16.20
2018-09-09T06:41:30.068Z,16.40
2018-09-09T06:43:58.403Z,16.30
2018-09-09T06:46:26.741Z,16.30
2018-09-09T06:48:55.010Z,16.30
2018-09-09T06:51:23.373Z,16.40
2018-09-09T06:53:51.625Z,16.40
2018-09-09T06:56:19.901Z,16.50
2018-09-09T06:58:48.150Z,16.60
2018-09-09T07:01:16.504Z,16.80
2018-09-09T07:03:44.764Z,16.90
2018-09-09T07:06:13.022Z,16.90
2018-09-09T07:08:41.310Z,17.00
2018-09-09T07:11:09.638Z,17.10
2018-09-09T07:13:37.871Z,17.20
2018-09-09T07:16:06.144Z,17.30
2018-09-09T07:18:34.540Z,17.50
2018-09-09T07:21:03.830Z,17.60
2018-09-09T07:23:32.087Z,17.70
2018-09-09T07:26:00.364Z,17.70
2018-09-09T07:28:28.626Z,17.70
2018-09-09T07:30:56.919Z,17.70
2018-09-09T07:33:25.215Z,17.80
2018-09-09T07:35:53.793Z,18.00
2018-09-09T07:38:21.982Z,18.10
2018-09-09T07:40:50.245Z,18.20
2018-09-09T07:43:18.484Z,18.20
2018-09-09T07:45:46.753Z,18.20
2018-09-09T07:48:15.023Z,18.10
2018-09-09T07:50:43.340Z,18.10
2018-09-09T07:53:11.615Z,18.10
2018-09-09T07:55:39.923Z,18.10
2018-09-09T07:58:08.245Z,18.30
2018-09-09T08:00:36.547Z,18.20
2018-09-09T08:03:04.804Z,18.20
2018-09-09T08:05:33.151Z,18.40
2018-09-09T08:08:01.490Z,18.30
2018-09-09T08:10:29.808Z,18.30
2018-09-09T08:12:58.090Z,18.30
2018-09-09T08:15:26.341Z,18.30
2018-09-09T08:17:54.571Z,18.40
2018-09-09T08:20:22.813Z,18.60
2018-09-09T08:22:51.093Z,18.70
2018-09-09T08:25:19.521Z,18.90
2018-09-09T08:27:47.822Z,18.90
2018-09-09T08:30:17.176Z,18.90
2018-09-09T08:32:45.808Z,19.00
2018-09-09T08:35:14.103Z,19.00
2018-09-09T08:37:42.346Z,18.90
2018-09-09T08:40:10.611Z,19.00
2018-09-09T08:42:38.887Z,19.20
2018-09-09T08:45:07.100Z,19.20
2018-09-09T08:47:35.339Z,19.30
2018-09-09T08:50:03.677Z,19.40
2018-09-09T08:52:31.968Z,19.30
2018-09-09T08:55:00.272Z,19.20
2018-09-09T08:57:28.628Z,19.20
2018-09-09T08:59:56.871Z,19.20
2018-09-09T09:02:25.991Z,19.30
2018-09-09T09:04:54.260Z,19.20
2018-09-09T09:07:22.577Z,19.10
2018-09-09T09:09:50.896Z,19.20
2018-09-09T09:12:19.187Z,19.30
2018-09-09T09:14:47.498Z,19.40
2018-09-09T09:17:15.700Z,19.40
2018-09-09T09:19:43.935Z,19.40
2018-09-09T09:22:12.245Z,19.40
2018-09-09T09:24:40.575Z,19.50
2018-09-09T09:27:08.881Z,19.60
2018-09-09T09:29:42.672Z,19.70
2018-09-09T09:32:10.925Z,19.70
2018-09-09T09:34:39.204Z,19.60
2018-09-09T09:37:07.527Z,19.60
2018-09-09T09:39:36.004Z,19.70
2018-09-09T09:42:04.254Z,19.70
2018-09-09T09:44:32.510Z,19.80
2018-09-09T09:47:00.764Z,19.80
2018-09-09T09:49:29.056Z,20.00
2018-09-09T09:51:57.362Z,20.10
2018-09-09T09:54:25.647Z,20.00
2018-09-09T09:56:53.892Z,20.00
2018-09-09T09:59:22.208Z,20.00
2018-09-09T10:01:50.455Z,20.00
2018-09-09T10:04:18.732Z,20.10
2018-09-09T10:06:46.984Z,20.10
2018-09-09T10:09:15.543Z,20.10
2018-09-09T10:11:43.841Z,20.10
2018-09-09T10:14:12.115Z,20.10
2018-09-09T10:16:40.404Z,20.10
2018-09-09T10:19:08.799Z,20.20
2018-09-09T10:21:37.073Z,20.30
2018-09-09T10:24:05.361Z,20.40
2018-09-09T10:26:33.914Z,20.20
2018-09-09T10:29:02.449Z,20.30
2018-09-09T10:31:30.692Z,20.40
2018-09-09T10:33:58.969Z,20.60
2018-09-09T10:36:27.222Z,20.60
2018-09-09T10:38:55.490Z,20.70
2018-09-09T10:41:23.797Z,20.80
2018-09-09T10:43:52.142Z,20.80
2018-09-09T10:46:20.583Z,20.90
2018-09-09T10:48:48.957Z,20.80
2018-09-09T10:51:17.261Z,20.80
2018-09-09T10:53:45.474Z,20.80
2018-09-09T10:56:13.761Z,20.80
2018-09-09T10:58:42.062Z,20.80
2018-09-09T11:01:10.356Z,20.80
2018-09-09T11:03:38.706Z,21.10
2018-09-09T11:06:07.068Z,21.50
2018-09-09T11:08:35.294Z,21.40
2018-09-09T11:11:03.533Z,21.30
2018-09-09T11:13:31.780Z,21.20
2018-09-09T11:16:00.056Z,21.20
2018-09-09T11:18:28.387Z,21.40
2018-09-09T11:20:56.712Z,21.80
2018-09-09T11:23:24.993Z,21.80
2018-09-09T11:25:53.219Z,21.70
2018-09-09T11:28:21.492Z,21.60
2018-09-09T11:30:49.815Z,21.30
2018-09-09T11:33:18.097Z,21.50
2018-09-09T11:35:46.382Z,21.70
2018-09-09T11:38:14.820Z,21.70
2018-09-09T11:40:43.136Z,21.60
2018-09-09T11:43:11.400Z,21.60
2018-09-09T11:45:39.688Z,21.70
2018-09-09T11:48:08.011Z,21.80
2018-09-09T11:50:36.265Z,21.70
2018-09-09T11:53:04.582Z,21.60
2018-09-09T11:55:32.861Z,21.50
2018-09-09T11:58:01.119Z,21.60
2018-09-09T12:00:29.368Z,21.70
2018-09-09T12:02:57.667Z,21.90
2018-09-09T12:05:25.947Z,21.90
2018-09-09T12:07:54.276Z,22.20
2018-09-09T12:10:22.555Z,22.00
2018-09-09T12:12:50.945Z,21.90
2018-09-09T12:15:19.636Z,22.00
2018-09-09T12:17:47.946Z,21.90
2018-09-09T12:20:16.172Z,21.70
2018-09-09T12:22:44.387Z,21.80
2018-09-09T12:25:12.658Z,22.10
2018-09-09T12:27:40.930Z,22.20
2018-09-09T12:30:09.167Z,22.30
2018-09-09T12:32:37.464Z,22.40
2018-09-09T12:35:05.950Z,22.50
2018-09-09T12:37:34.271Z,22.60
2018-09-09T12:40:02.467Z,22.60
2018-09-09T12:42:30.759Z,22.60
2018-09-09T12:45:04.482Z,22.60
2018-09-09T12:47:38.227Z,22.70
2018-09-09T12:50:06.518Z,22.80
2018-09-09T12:52:34.814Z,22.60
2018-09-09T12:55:03.105Z,22.70
2018-09-09T12:57:31.411Z,22.60
2018-09-09T12:59:59.887Z,22.60
2018-09-09T13:02:28.257Z,22.70
2018-09-09T13:04:56.580Z,22.60
2018-09-09T13:07:24.982Z,22.80
2018-09-09T13:09:53.179Z,22.80
2018-09-09T13:12:21.552Z,22.80
2018-09-09T13:14:49.808Z,22.70
2018-09-09T13:17:18.052Z,22.80
2018-09-09T13:19:46.327Z,22.80
2018-09-09T13:22:14.560Z,22.90
2018-09-09T13:24:42.879Z,22.80
2018-09-09T13:27:11.188Z,22.90
2018-09-09T13:29:39.439Z,22.80
2018-09-09T13:32:07.971Z,22.90
2018-09-09T13:34:36.251Z,23.00
2018-09-09T13:37:04.577Z,23.20
2018-09-09T13:39:32.883Z,23.40
2018-09-09T13:42:01.133Z,23.50
2018-09-09T13:44:29.410Z,23.60
2018-09-09T13:46:57.669Z,23.60
2018-09-09T13:49:25.924Z,23.70
2018-09-09T13:51:54.200Z,23.90
2018-09-09T13:54:22.653Z,23.90
2018-09-09T13:56:50.845Z,24.00
2018-09-09T13:59:19.208Z,24.00
2018-09-09T14:01:47.486Z,24.10
2018-09-09T14:04:15.752Z,24.00
2018-09-09T14:06:44.093Z,24.10
2018-09-09T14:09:12.473Z,24.20
2018-09-09T14:11:40.744Z,24.10
2018-09-09T14:14:09.116Z,24.00
2018-09-09T14:16:37.353Z,24.00
2018-09-09T14:19:05.592Z,23.90
2018-09-09T14:21:33.942Z,23.80
2018-09-09T14:24:02.202Z,23.80
2018-09-09T14:26:30.536Z,24.10
2018-09-09T14:28:58.823Z,24.30
2018-09-09T14:31:27.091Z,24.20
2018-09-09T14:33:55.344Z,24.10
2018-09-09T14:36:23.580Z,24.00
2018-09-09T14:38:51.867Z,23.90
2018-09-09T14:41:20.141Z,23.90
2018-09-09T14:43:48.544Z,24.00
2018-09-09T14:46:16.858Z,23.80
2018-09-09T14:48:45.391Z,23.70
2018-09-09T14:51:13.609Z,23.60
2018-09-09T14:53:41.891Z,23.70
2018-09-09T14:56:10.198Z,23.70
2018-09-09T14:58:38.482Z,23.60
2018-09-09T15:01:06.720Z,23.50
2018-09-09T15:03:35.005Z,23.60
2018-09-09T15:06:03.308Z,23.50
2018-09-09T15:08:31.567Z,23.50
2018-09-09T15:10:59.828Z,23.50
2018-09-09T15:13:28.095Z,23.60
2018-09-09T15:15:56.597Z,23.60
2018-09-09T15:18:24.896Z,23.50
2018-09-09T15:20:53.157Z,23.30
2018-09-09T15:23:21.469Z,23.30
2018-09-09T15:25:49.701Z,23.30
2018-09-09T15:28:17.987Z,23.30
2018-09-09T15:30:46.243Z,23.50
2018-09-09T15:33:14.490Z,23.80
2018-09-09T15:35:42.765Z,24.00
2018-09-09T15:38:11.010Z,24.00
2018-09-09T15:40:39.267Z,24.10
2018-09-09T15:43:07.523Z,23.90
2018-09-09T15:45:35.832Z,23.80
2018-09-09T15:48:04.116Z,23.80
2018-09-09T15:50:32.386Z,23.70
2018-09-09T15:53:00.654Z,23.60
2018-09-09T15:55:29.013Z,23.60
2018-09-09T15:57:57.910Z,23.50
2018-09-09T16:00:26.213Z,23.60
2018-09-09T16:02:55.316Z,23.50
2018-09-09T16:05:23.582Z,23.30
2018-09-09T16:07:51.835Z,23.20
2018-09-09T16:10:20.164Z,23.10
2018-09-09T16:12:48.462Z,23.00
2018-09-09T16:15:16.716Z,22.90
2018-09-09T16:17:45.011Z,22.90
2018-09-09T16:20:13.298Z,22.90
2018-09-09T16:22:41.565Z,22.80
2018-09-09T16:25:09.807Z,22.80
2018-09-09T16:27:38.056Z,22.70
2018-09-09T16:30:07.452Z,22.70
2018-09-09T16:32:35.776Z,22.50
2018-09-09T16:35:04.106Z,22.50
2018-09-09T16:37:32.423Z,22.40
2018-09-09T16:40:00.822Z,22.40
2018-09-09T16:42:29.089Z,22.40
2018-09-09T16:44:57.359Z,22.30
2018-09-09T16:47:25.614Z,22.20
2018-09-09T16:49:53.872Z,22.30
2018-09-09T16:52:23.018Z,22.40
2018-09-09T16:54:51.307Z,22.50
2018-09-09T16:57:19.721Z,22.40
2018-09-09T16:59:47.990Z,22.30
2018-09-09T17:02:16.252Z,22.20
2018-09-09T17:04:44.516Z,22.10
2018-09-09T17:07:12.794Z,22.00
2018-09-09T17:09:41.116Z,22.00
2018-09-09T17:12:09.560Z,22.20
2018-09-09T17:14:37.873Z,22.20
2018-09-09T17:17:06.223Z,22.10
2018-09-09T17:19:34.546Z,22.00
2018-09-09T17:22:02.813Z,21.90
2018-09-09T17:24:31.176Z,21.80
2018-09-09T17:26:59.437Z,21.80
2018-09-09T17:29:27.695Z,21.80
2018-09-09T17:31:55.940Z,21.80
2018-09-09T17:34:24.249Z,21.80
2018-09-09T17:36:52.504Z,21.80
2018-09-09T17:39:20.805Z,21.80
2018-09-09T17:41:49.086Z,21.60
2018-09-09T17:44:17.399Z,21.60
2018-09-09T17:46:45.637Z,21.50
2018-09-09T17:49:13.996Z,21.50
2018-09-09T17:51:42.333Z,21.40
2018-09-09T17:54:10.573Z,21.30
2018-09-09T17:56:38.890Z,21.20
2018-09-09T17:59:07.214Z,21.20
2018-09-09T18:01:35.583Z,21.10
2018-09-09T18:04:03.855Z,21.10
2018-09-09T18:06:32.127Z,21.00
2018-09-09T18:09:00.433Z,21.00
2018-09-09T18:11:28.686Z,20.90
2018-09-09T18:13:56.925Z,20.90
2018-09-09T18:16:25.177Z,20.90
2018-09-09T18:18:53.517Z,20.90
2018-09-09T18:21:21.790Z,20.80
2018-09-09T18:23:50.187Z,20.70
2018-09-09T18:26:18.607Z,20.70
2018-09-09T18:28:46.934Z,20.50
2018-09-09T18:31:15.208Z,20.40
2018-09-09T18:33:43.529Z,20.30
2018-09-09T18:36:11.761Z,20.20
2018-09-09T18:38:40.076Z,20.10
2018-09-09T18:41:08.280Z,20.10
2018-09-09T18:43:36.634Z,20.00
2018-09-09T18:46:04.980Z,19.90
2018-09-09T18:48:33.325Z,19.80
2018-09-09T18:51:01.625Z,19.70
2018-09-09T18:53:31.186Z,19.70
2018-09-09T18:55:59.455Z,19.60
2018-09-09T18:58:27.845Z,19.60
2018-09-09T19:00:56.273Z,19.50
2018-09-09T19:03:24.602Z,19.40
2018-09-09T19:05:53.013Z,19.40
2018-09-09T19:08:21.296Z,19.30
2018-09-09T19:10:49.559Z,19.30
2018-09-09T19:13:17.828Z,19.20
2018-09-09T19:15:46.126Z,19.20
2018-09-09T19:18:14.373Z,19.10
2018-09-09T19:20:42.751Z,19.10
2018-09-09T19:23:11.090Z,19.00
2018-09-09T19:25:39.841Z,19.00
2018-09-09T19:28:08.123Z,18.90
2018-09-09T19:30:36.480Z,18.90
2018-09-09T19:33:04.995Z,18.90
2018-09-09T19:35:33.324Z,18.80
2018-09-09T19:38:01.600Z,18.80
2018-09-09T19:40:30.031Z,18.70
2018-09-09T19:42:58.324Z,18.60
2018-09-09T19:45:26.636Z,18.50
2018-09-09T19:47:54.888Z,18.50
2018-09-09T19:50:23.167Z,18.40
2018-09-09T19:52:51.467Z,18.40
2018-09-09T19:55:19.778Z,18.40
2018-09-09T19:57:49.273Z,18.30
2018-09-09T20:00:17.530Z,18.30
2018-09-09T20:02:46.537Z,18.20
2018-09-09T20:05:14.826Z,18.20
2018-09-09T20:07:43.236Z,18.10
2018-09-09T20:10:11.557Z,18.10
2018-09-09T20:12:39.914Z,18.10
2018-09-09T20:15:08.601Z,18.00
2018-09-09T20:17:36.892Z,18.00
2018-09-09T20:20:05.650Z,17.90
2018-09-09T20:22:33.910Z,17.90
2018-09-09T20:25:02.183Z,17.90
2018-09-09T20:27:30.463Z,17.80
2018-09-09T20:29:58.764Z,17.80
2018-09-09T20:32:27.066Z,17.70
2018-09-09T20:34:55.300Z,17.70
2018-09-09T20:37:23.568Z,17.60
2018-09-09T20:39:51.834Z,17.60
2018-09-09T20:42:20.110Z,17.60
2018-09-09T20:44:48.381Z,17.60
2018-09-09T20:47:16.675Z,17.50
2018-09-09T20:49:45.032Z,17.40
2018-09-09T20:52:13.359Z,17.40
2018-09-09T20:54:41.702Z,17.40
2018-09-09T20:57:09.990Z,17.40
2018-09-09T20:59:38.262Z,17.30
2018-09-09T21:02:06.506Z,17.30
2018-09-09T21:04:34.808Z,17.30
2018-09-09T21:07:03.124Z,17.30
2018-09-09T21:09:31.501Z,17.30
2018-09-09T21:11:59.649Z,17.20
2018-09-09T21:14:27.998Z,17.20
2018-09-09T21:16:56.308Z,17.10
2018-09-09T21:19:24.584Z,17.10
2018-09-09T21:21:52.968Z,17.00
2018-09-09T21:24:21.264Z,17.00
2018-09-09T21:26:49.549Z,17.00
2018-09-09T21:29:18.019Z,17.00
2018-09-09T21:31:46.303Z,17.00
2018-09-09T21:34:14.680Z,16.90
2018-09-09T21:36:42.959Z,16.90
2018-09-09T21:39:11.976Z,16.90
2018-09-09T21:41:40.986Z,16.80
2018-09-09T21:44:09.356Z,16.80
2018-09-09T21:46:37.595Z,16.80
2018-09-09T21:49:06.110Z,16.70
2018-09-09T21:51:34.340Z,16.70
2018-09-09T21:54:02.593Z,16.60
2018-09-09T21:56:30.866Z,16.60
2018-09-09T21:58:59.178Z,16.50
2018-09-09T22:01:32.750Z,16.50
2018-09-09T22:04:01.119Z,16.50
2018-09-09T22:06:29.421Z,16.40
2018-09-09T22:08:58.500Z,16.40
2018-09-09T22:11:26.930Z,16.40
2018-09-09T22:13:55.946Z,16.40
2018-09-09T22:16:24.491Z,16.40
2018-09-09T22:18:52.753Z,16.40
2018-09-09T22:21:21.028Z,16.40
2018-09-09T22:23:49.385Z,16.40
2018-09-09T22:26:17.939Z,16.50
2018-09-09T22:28:46.918Z,16.50
2018-09-09T22:31:15.160Z,16.50
2018-09-09T22:33:43.395Z,16.50
2018-09-09T22:36:11.748Z,16.50
2018-09-09T22:38:40.033Z,16.40
2018-09-09T22:41:08.310Z,16.40
2018-09-09T22:43:36.561Z,16.50
2018-09-09T22:46:05.964Z,16.40
2018-09-09T22:48:34.328Z,16.50
2018-09-09T22:51:02.633Z,16.40
2018-09-09T22:53:30.943Z,16.40
2018-09-09T22:55:59.204Z,16.40
2018-09-09T22:58:27.482Z,16.40
2018-09-09T23:00:55.876Z,16.40
2018-09-09T23:03:24.165Z,16.40
2018-09-09T23:05:52.416Z,16.40
2018-09-09T23:08:20.696Z,16.40
2018-09-09T23:10:49.073Z,16.40
2018-09-09T23:13:17.348Z,16.40
2018-09-09T23:15:45.621Z,16.40
2018-09-09T23:18:13.860Z,16.40
2018-09-09T23:20:42.106Z,16.30
2018-09-09T23:23:10.418Z,16.40
2018-09-09T23:25:38.689Z,16.30
2018-09-09T23:28:07.006Z,16.30
2018-09-09T23:30:35.242Z,16.30
2018-09-09T23:33:03.488Z,16.30
2018-09-09T23:35:31.716Z,16.30
2018-09-09T23:37:59.982Z,16.30
2018-09-09T23:40:28.339Z,16.30
2018-09-09T23:42:56.592Z,16.30
2018-09-09T23:45:24.971Z,16.30
2018-09-09T23:47:53.256Z,16.20
2018-09-09T23:50:21.527Z,16.30
2018-09-09T23:52:49.916Z,16.30
2018-09-09T23:55:18.332Z,16.30
2018-09-09T23:57:46.586Z,16.30
